sensor_id;sensor_type;location;lat;lon;timestamp;P1;durP1;ratioP1;P2;durP2;ratioP2
67528;SDS011;54366;51.980;5.856;2023-10-09T00:01:05;9.63;;;7.75;;
67528;SDS011;54366;51.980;5.856;2023-10-09T00:03:42;8.57;;;7.55;;
67528;SDS011;54366;51.980;5.856;2023-10-09T00:06:10;10.75;;;7.85;;
67528;SDS011;54366;51.980;5.856;2023-10-09T00:08:39;8.68;;;7.45;;
67528;SDS011;54366;51.980;5.856;2023-10-09T00:11:10;9.90;;;7.75;;
67528;SDS011;54366;51.980;5.856;2023-10-09T00:13:43;10.85;;;8.20;;
67528;SDS011;54366;51.980;5.856;2023-10-09T00:16:23;9.73;;;7.55;;
67528;SDS011;54366;51.980;5.856;2023-10-09T00:19:01;9.07;;;7.80;;
67528;SDS011;54366;51.980;5.856;2023-10-09T00:21:40;9.02;;;6.88;;
67528;SDS011;54366;51.980;5.856;2023-10-09T00:24:07;9.95;;;7.55;;
67528;SDS011;54366;51.980;5.856;2023-10-09T00:26:39;8.90;;;7.13;;
67528;SDS011;54366;51.980;5.856;2023-10-09T00:29:13;10.85;;;7.70;;
67528;SDS011;54366;51.980;5.856;2023-10-09T00:31:56;10.05;;;8.15;;
67528;SDS011;54366;51.980;5.856;2023-10-09T00:34:40;9.43;;;8.13;;
67528;SDS011;54366;51.980;5.856;2023-10-09T00:37:07;10.05;;;8.40;;
67528;SDS011;54366;51.980;5.856;2023-10-09T00:39:42;11.25;;;8.68;;
67528;SDS011;54366;51.980;5.856;2023-10-09T00:42:10;10.63;;;8.05;;
67528;SDS011;54366;51.980;5.856;2023-10-09T00:44:41;10.07;;;8.40;;
67528;SDS011;54366;51.980;5.856;2023-10-09T00:47:09;11.25;;;8.82;;
67528;SDS011;54366;51.980;5.856;2023-10-09T00:49:57;10.80;;;8.70;;
67528;SDS011;54366;51.980;5.856;2023-10-09T00:52:28;13.35;;;9.38;;
67528;SDS011;54366;51.980;5.856;2023-10-09T00:55:03;10.85;;;8.13;;
67528;SDS011;54366;51.980;5.856;2023-10-09T00:57:35;11.60;;;8.85;;
67528;SDS011;54366;51.980;5.856;2023-10-09T01:00:03;11.50;;;8.80;;
67528;SDS011;54366;51.980;5.856;2023-10-09T01:02:38;11.00;;;9.02;;
67528;SDS011;54366;51.980;5.856;2023-10-09T01:05:08;12.18;;;9.40;;
67528;SDS011;54366;51.980;5.856;2023-10-09T01:07:45;12.35;;;9.10;;
67528;SDS011;54366;51.980;5.856;2023-10-09T01:10:13;11.05;;;9.18;;
67528;SDS011;54366;51.980;5.856;2023-10-09T01:12:42;12.52;;;9.85;;
67528;SDS011;54366;51.980;5.856;2023-10-09T01:15:10;12.15;;;9.80;;
67528;SDS011;54366;51.980;5.856;2023-10-09T01:17:59;11.15;;;8.98;;
67528;SDS011;54366;51.980;5.856;2023-10-09T01:20:27;13.90;;;10.30;;
67528;SDS011;54366;51.980;5.856;2023-10-09T01:23:00;13.52;;;10.27;;
67528;SDS011;54366;51.980;5.856;2023-10-09T01:25:27;11.13;;;9.10;;
67528;SDS011;54366;51.980;5.856;2023-10-09T01:28:07;13.52;;;9.80;;
67528;SDS011;54366;51.980;5.856;2023-10-09T01:30:33;13.35;;;10.23;;
67528;SDS011;54366;51.980;5.856;2023-10-09T01:33:00;11.63;;;8.90;;
67528;SDS011;54366;51.980;5.856;2023-10-09T01:35:37;11.77;;;9.93;;
67528;SDS011;54366;51.980;5.856;2023-10-09T01:38:14;13.23;;;10.38;;
67528;SDS011;54366;51.980;5.856;2023-10-09T01:40:41;13.43;;;10.50;;
67528;SDS011;54366;51.980;5.856;2023-10-09T01:43:10;11.90;;;10.15;;
67528;SDS011;54366;51.980;5.856;2023-10-09T01:45:36;14.25;;;9.93;;
67528;SDS011;54366;51.980;5.856;2023-10-09T01:48:17;11.88;;;9.55;;
67528;SDS011;54366;51.980;5.856;2023-10-09T01:50:49;12.57;;;9.98;;
67528;SDS011;54366;51.980;5.856;2023-10-09T01:53:16;11.27;;;9.63;;
67528;SDS011;54366;51.980;5.856;2023-10-09T01:55:47;12.55;;;10.05;;
67528;SDS011;54366;51.980;5.856;2023-10-09T01:58:21;13.17;;;9.83;;
67528;SDS011;54366;51.980;5.856;2023-10-09T02:00:53;13.13;;;10.02;;
67528;SDS011;54366;51.980;5.856;2023-10-09T02:03:22;11.52;;;9.90;;
67528;SDS011;54366;51.980;5.856;2023-10-09T02:05:49;12.32;;;10.65;;
67528;SDS011;54366;51.980;5.856;2023-10-09T02:08:17;11.75;;;9.95;;
67528;SDS011;54366;51.980;5.856;2023-10-09T02:10:48;11.75;;;10.18;;
67528;SDS011;54366;51.980;5.856;2023-10-09T02:13:14;13.60;;;10.70;;
67528;SDS011;54366;51.980;5.856;2023-10-09T02:15:43;11.75;;;9.95;;
67528;SDS011;54366;51.980;5.856;2023-10-09T02:18:13;14.27;;;10.88;;
67528;SDS011;54366;51.980;5.856;2023-10-09T02:20:48;14.48;;;11.63;;
67528;SDS011;54366;51.980;5.856;2023-10-09T02:23:42;14.00;;;11.25;;
67528;SDS011;54366;51.980;5.856;2023-10-09T02:26:12;13.20;;;10.77;;
67528;SDS011;54366;51.980;5.856;2023-10-09T02:28:54;12.77;;;10.77;;
67528;SDS011;54366;51.980;5.856;2023-10-09T02:31:26;12.43;;;10.98;;
67528;SDS011;54366;51.980;5.856;2023-10-09T02:34:01;13.05;;;10.90;;
67528;SDS011;54366;51.980;5.856;2023-10-09T02:36:34;12.32;;;10.93;;
67528;SDS011;54366;51.980;5.856;2023-10-09T02:39:04;13.57;;;10.55;;
67528;SDS011;54366;51.980;5.856;2023-10-09T02:41:31;12.10;;;10.43;;
67528;SDS011;54366;51.980;5.856;2023-10-09T02:44:00;12.85;;;10.85;;
67528;SDS011;54366;51.980;5.856;2023-10-09T02:46:36;13.15;;;11.07;;
67528;SDS011;54366;51.980;5.856;2023-10-09T02:49:02;14.63;;;11.43;;
67528;SDS011;54366;51.980;5.856;2023-10-09T02:51:31;12.15;;;10.85;;
67528;SDS011;54366;51.980;5.856;2023-10-09T02:53:59;14.57;;;11.50;;
67528;SDS011;54366;51.980;5.856;2023-10-09T02:56:34;13.40;;;12.00;;
67528;SDS011;54366;51.980;5.856;2023-10-09T02:59:24;13.35;;;11.02;;
67528;SDS011;54366;51.980;5.856;2023-10-09T03:01:50;13.75;;;11.45;;
67528;SDS011;54366;51.980;5.856;2023-10-09T03:04:18;13.68;;;10.80;;
67528;SDS011;54366;51.980;5.856;2023-10-09T03:06:46;12.23;;;10.82;;
67528;SDS011;54366;51.980;5.856;2023-10-09T03:09:18;13.65;;;10.63;;
67528;SDS011;54366;51.980;5.856;2023-10-09T03:11:53;11.85;;;10.60;;
67528;SDS011;54366;51.980;5.856;2023-10-09T03:14:29;13.95;;;11.32;;
67528;SDS011;54366;51.980;5.856;2023-10-09T03:16:57;12.52;;;11.23;;
67528;SDS011;54366;51.980;5.856;2023-10-09T03:19:28;14.10;;;11.50;;
67528;SDS011;54366;51.980;5.856;2023-10-09T03:21:55;14.00;;;11.57;;
67528;SDS011;54366;51.980;5.856;2023-10-09T03:24:25;13.90;;;11.80;;
67528;SDS011;54366;51.980;5.856;2023-10-09T03:26:58;13.60;;;10.95;;
67528;SDS011;54366;51.980;5.856;2023-10-09T03:29:24;12.75;;;10.65;;
67528;SDS011;54366;51.980;5.856;2023-10-09T03:31:51;12.43;;;10.55;;
67528;SDS011;54366;51.980;5.856;2023-10-09T03:34:17;12.80;;;11.15;;
67528;SDS011;54366;51.980;5.856;2023-10-09T03:36:45;12.07;;;10.20;;
67528;SDS011;54366;51.980;5.856;2023-10-09T03:39:13;11.85;;;10.30;;
67528;SDS011;54366;51.980;5.856;2023-10-09T03:41:59;10.65;;;8.88;;
67528;SDS011;54366;51.980;5.856;2023-10-09T03:44:25;12.18;;;10.00;;
67528;SDS011;54366;51.980;5.856;2023-10-09T03:46:56;12.60;;;10.43;;
67528;SDS011;54366;51.980;5.856;2023-10-09T03:49:22;12.73;;;11.20;;
67528;SDS011;54366;51.980;5.856;2023-10-09T03:51:51;12.15;;;10.27;;
67528;SDS011;54366;51.980;5.856;2023-10-09T03:54:18;11.90;;;10.70;;
67528;SDS011;54366;51.980;5.856;2023-10-09T03:56:46;11.70;;;9.98;;
67528;SDS011;54366;51.980;5.856;2023-10-09T03:59:16;11.93;;;9.95;;
67528;SDS011;54366;51.980;5.856;2023-10-09T04:01:45;11.98;;;10.35;;
67528;SDS011;54366;51.980;5.856;2023-10-09T04:04:14;11.35;;;9.93;;
67528;SDS011;54366;51.980;5.856;2023-10-09T04:06:40;10.57;;;8.90;;
67528;SDS011;54366;51.980;5.856;2023-10-09T04:09:07;8.13;;;7.32;;
67528;SDS011;54366;51.980;5.856;2023-10-09T04:11:54;7.70;;;6.90;;
67528;SDS011;54366;51.980;5.856;2023-10-09T04:14:50;8.15;;;6.72;;
67528;SDS011;54366;51.980;5.856;2023-10-09T04:17:20;7.38;;;6.68;;
67528;SDS011;54366;51.980;5.856;2023-10-09T04:19:59;10.95;;;9.07;;
67528;SDS011;54366;51.980;5.856;2023-10-09T04:23:02;11.60;;;9.75;;
67528;SDS011;54366;51.980;5.856;2023-10-09T04:25:32;8.82;;;7.72;;
67528;SDS011;54366;51.980;5.856;2023-10-09T04:28:08;8.50;;;7.15;;
67528;SDS011;54366;51.980;5.856;2023-10-09T04:30:36;7.57;;;6.78;;
67528;SDS011;54366;51.980;5.856;2023-10-09T04:33:06;9.60;;;8.45;;
67528;SDS011;54366;51.980;5.856;2023-10-09T04:35:50;8.38;;;7.03;;
67528;SDS011;54366;51.980;5.856;2023-10-09T04:38:37;8.10;;;7.30;;
67528;SDS011;54366;51.980;5.856;2023-10-09T04:41:07;9.07;;;8.00;;
67528;SDS011;54366;51.980;5.856;2023-10-09T04:43:34;6.45;;;5.88;;
67528;SDS011;54366;51.980;5.856;2023-10-09T04:46:00;7.10;;;6.40;;
67528;SDS011;54366;51.980;5.856;2023-10-09T04:48:44;7.15;;;5.78;;
67528;SDS011;54366;51.980;5.856;2023-10-09T04:51:11;6.13;;;5.13;;
67528;SDS011;54366;51.980;5.856;2023-10-09T04:53:47;6.30;;;5.70;;
67528;SDS011;54366;51.980;5.856;2023-10-09T04:56:25;8.75;;;7.13;;
67528;SDS011;54366;51.980;5.856;2023-10-09T04:58:57;7.80;;;5.47;;
67528;SDS011;54366;51.980;5.856;2023-10-09T05:01:29;7.13;;;6.35;;
67528;SDS011;54366;51.980;5.856;2023-10-09T05:04:09;6.47;;;5.72;;
67528;SDS011;54366;51.980;5.856;2023-10-09T05:06:52;6.18;;;5.57;;
67528;SDS011;54366;51.980;5.856;2023-10-09T05:09:22;7.30;;;6.60;;
67528;SDS011;54366;51.980;5.856;2023-10-09T05:11:49;6.20;;;5.60;;
67528;SDS011;54366;51.980;5.856;2023-10-09T05:14:35;5.78;;;5.20;;
67528;SDS011;54366;51.980;5.856;2023-10-09T05:17:05;6.18;;;5.57;;
67528;SDS011;54366;51.980;5.856;2023-10-09T05:19:35;8.50;;;7.30;;
67528;SDS011;54366;51.980;5.856;2023-10-09T05:22:20;7.13;;;6.38;;
67528;SDS011;54366;51.980;5.856;2023-10-09T05:24:56;8.02;;;6.45;;
67528;SDS011;54366;51.980;5.856;2023-10-09T05:27:26;5.68;;;5.05;;
67528;SDS011;54366;51.980;5.856;2023-10-09T05:30:11;5.68;;;5.07;;
67528;SDS011;54366;51.980;5.856;2023-10-09T05:32:51;5.57;;;5.07;;
67528;SDS011;54366;51.980;5.856;2023-10-09T05:35:21;7.07;;;5.65;;
67528;SDS011;54366;51.980;5.856;2023-10-09T05:37:55;6.57;;;5.85;;
67528;SDS011;54366;51.980;5.856;2023-10-09T05:40:29;8.23;;;7.18;;
67528;SDS011;54366;51.980;5.856;2023-10-09T05:43:01;9.52;;;7.80;;
67528;SDS011;54366;51.980;5.856;2023-10-09T05:45:28;8.85;;;7.65;;
67528;SDS011;54366;51.980;5.856;2023-10-09T05:48:30;7.32;;;5.95;;
67528;SDS011;54366;51.980;5.856;2023-10-09T05:51:16;7.07;;;6.05;;
67528;SDS011;54366;51.980;5.856;2023-10-09T05:54:05;7.30;;;5.57;;
67528;SDS011;54366;51.980;5.856;2023-10-09T05:56:49;8.23;;;6.60;;
67528;SDS011;54366;51.980;5.856;2023-10-09T05:59:34;7.75;;;6.78;;
67528;SDS011;54366;51.980;5.856;2023-10-09T06:02:23;9.32;;;7.10;;
67528;SDS011;54366;51.980;5.856;2023-10-09T06:05:08;5.97;;;5.15;;
67528;SDS011;54366;51.980;5.856;2023-10-09T06:07:54;7.82;;;6.35;;
67528;SDS011;54366;51.980;5.856;2023-10-09T06:10:33;7.38;;;6.63;;
67528;SDS011;54366;51.980;5.856;2023-10-09T06:13:07;7.78;;;6.65;;
67528;SDS011;54366;51.980;5.856;2023-10-09T06:15:52;5.60;;;4.95;;
67528;SDS011;54366;51.980;5.856;2023-10-09T06:18:34;5.85;;;5.13;;
67528;SDS011;54366;51.980;5.856;2023-10-09T06:21:01;5.57;;;4.97;;
67528;SDS011;54366;51.980;5.856;2023-10-09T06:23:50;5.82;;;5.22;;
67528;SDS011;54366;51.980;5.856;2023-10-09T06:26:35;6.47;;;5.00;;
67528;SDS011;54366;51.980;5.856;2023-10-09T06:29:02;5.32;;;4.72;;
67528;SDS011;54366;51.980;5.856;2023-10-09T06:31:40;5.40;;;4.40;;
67528;SDS011;54366;51.980;5.856;2023-10-09T06:34:32;5.30;;;4.60;;
67528;SDS011;54366;51.980;5.856;2023-10-09T06:37:01;5.03;;;4.53;;
67528;SDS011;54366;51.980;5.856;2023-10-09T06:39:44;5.70;;;4.95;;
67528;SDS011;54366;51.980;5.856;2023-10-09T06:42:16;5.28;;;4.78;;
67528;SDS011;54366;51.980;5.856;2023-10-09T06:45:04;5.25;;;4.75;;
67528;SDS011;54366;51.980;5.856;2023-10-09T06:47:33;5.95;;;5.10;;
67528;SDS011;54366;51.980;5.856;2023-10-09T06:50:24;6.68;;;5.22;;
67528;SDS011;54366;51.980;5.856;2023-10-09T06:52:53;5.82;;;5.22;;
67528;SDS011;54366;51.980;5.856;2023-10-09T06:55:55;6.15;;;5.32;;
67528;SDS011;54366;51.980;5.856;2023-10-09T06:58:30;5.80;;;5.20;;
67528;SDS011;54366;51.980;5.856;2023-10-09T07:01:07;6.35;;;5.68;;
67528;SDS011;54366;51.980;5.856;2023-10-09T07:03:57;5.15;;;4.63;;
67528;SDS011;54366;51.980;5.856;2023-10-09T07:06:36;5.35;;;4.85;;
67528;SDS011;54366;51.980;5.856;2023-10-09T07:09:14;4.70;;;4.30;;
67528;SDS011;54366;51.980;5.856;2023-10-09T07:11:42;6.63;;;5.55;;
67528;SDS011;54366;51.980;5.856;2023-10-09T07:14:29;6.25;;;5.65;;
67528;SDS011;54366;51.980;5.856;2023-10-09T07:17:17;6.00;;;5.10;;
67528;SDS011;54366;51.980;5.856;2023-10-09T07:20:07;5.90;;;5.30;;
67528;SDS011;54366;51.980;5.856;2023-10-09T07:22:39;4.18;;;3.70;;
67528;SDS011;54366;51.980;5.856;2023-10-09T07:25:19;5.30;;;4.80;;
67528;SDS011;54366;51.980;5.856;2023-10-09T07:28:04;6.20;;;5.20;;
67528;SDS011;54366;51.980;5.856;2023-10-09T07:30:46;5.95;;;5.25;;
67528;SDS011;54366;51.980;5.856;2023-10-09T07:33:13;4.43;;;4.03;;
67528;SDS011;54366;51.980;5.856;2023-10-09T07:35:48;3.88;;;3.47;;
67528;SDS011;54366;51.980;5.856;2023-10-09T07:38:24;5.47;;;4.65;;
67528;SDS011;54366;51.980;5.856;2023-10-09T07:40:54;5.80;;;5.30;;
67528;SDS011;54366;51.980;5.856;2023-10-09T07:43:22;5.07;;;4.57;;
67528;SDS011;54366;51.980;5.856;2023-10-09T07:45:54;4.65;;;4.05;;
67528;SDS011;54366;51.980;5.856;2023-10-09T07:48:44;5.57;;;4.90;;
67528;SDS011;54366;51.980;5.856;2023-10-09T07:51:20;4.97;;;4.47;;
67528;SDS011;54366;51.980;5.856;2023-10-09T07:53:52;4.47;;;3.90;;
67528;SDS011;54366;51.980;5.856;2023-10-09T07:56:33;5.55;;;4.50;;
67528;SDS011;54366;51.980;5.856;2023-10-09T08:01:37;5.68;;;5.13;;
67528;SDS011;54366;51.980;5.856;2023-10-09T08:04:39;5.00;;;4.35;;
67528;SDS011;54366;51.980;5.856;2023-10-09T08:07:15;5.93;;;5.10;;
67528;SDS011;54366;51.980;5.856;2023-10-09T08:09:45;6.80;;;5.47;;
67528;SDS011;54366;51.980;5.856;2023-10-09T08:12:15;5.47;;;4.75;;
67528;SDS011;54366;51.980;5.856;2023-10-09T08:15:01;4.18;;;3.78;;
67528;SDS011;54366;51.980;5.856;2023-10-09T08:17:56;4.65;;;4.25;;
67528;SDS011;54366;51.980;5.856;2023-10-09T08:20:29;4.78;;;4.28;;
67528;SDS011;54366;51.980;5.856;2023-10-09T08:23:16;6.45;;;4.60;;
67528;SDS011;54366;51.980;5.856;2023-10-09T08:26:09;5.82;;;5.22;;
67528;SDS011;54366;51.980;5.856;2023-10-09T08:28:53;5.93;;;5.20;;
67528;SDS011;54366;51.980;5.856;2023-10-09T08:31:20;8.43;;;6.43;;
67528;SDS011;54366;51.980;5.856;2023-10-09T08:34:22;9.45;;;8.07;;
67528;SDS011;54366;51.980;5.856;2023-10-09T08:36:52;8.25;;;7.38;;
67528;SDS011;54366;51.980;5.856;2023-10-09T08:39:20;8.07;;;6.10;;
67528;SDS011;54366;51.980;5.856;2023-10-09T08:41:53;8.15;;;6.03;;
67528;SDS011;54366;51.980;5.856;2023-10-09T08:46:57;8.00;;;5.88;;
67528;SDS011;54366;51.980;5.856;2023-10-09T08:49:25;5.93;;;4.45;;
67528;SDS011;54366;51.980;5.856;2023-10-09T08:51:53;8.38;;;6.53;;
67528;SDS011;54366;51.980;5.856;2023-10-09T08:54:20;9.07;;;6.68;;
67528;SDS011;54366;51.980;5.856;2023-10-09T08:56:46;7.40;;;6.60;;
67528;SDS011;54366;51.980;5.856;2023-10-09T08:59:16;9.73;;;7.22;;
67528;SDS011;54366;51.980;5.856;2023-10-09T09:01:46;8.73;;;7.43;;
67528;SDS011;54366;51.980;5.856;2023-10-09T09:04:41;11.07;;;9.27;;
67528;SDS011;54366;51.980;5.856;2023-10-09T09:07:26;10.10;;;8.35;;
67528;SDS011;54366;51.980;5.856;2023-10-09T09:10:05;9.52;;;7.88;;
67528;SDS011;54366;51.980;5.856;2023-10-09T09:12:46;10.30;;;8.20;;
67528;SDS011;54366;51.980;5.856;2023-10-09T09:15:19;10.35;;;8.20;;
67528;SDS011;54366;51.980;5.856;2023-10-09T09:17:46;11.63;;;9.07;;
67528;SDS011;54366;51.980;5.856;2023-10-09T09:20:24;8.63;;;6.90;;
67528;SDS011;54366;51.980;5.856;2023-10-09T09:23:09;9.18;;;7.82;;
67528;SDS011;54366;51.980;5.856;2023-10-09T09:25:44;7.10;;;5.60;;
67528;SDS011;54366;51.980;5.856;2023-10-09T09:28:16;6.57;;;5.88;;
67528;SDS011;54366;51.980;5.856;2023-10-09T09:30:47;6.25;;;5.40;;
67528;SDS011;54366;51.980;5.856;2023-10-09T09:33:23;8.75;;;7.00;;
67528;SDS011;54366;51.980;5.856;2023-10-09T09:35:59;12.18;;;10.00;;
67528;SDS011;54366;51.980;5.856;2023-10-09T09:38:31;8.32;;;7.30;;
67528;SDS011;54366;51.980;5.856;2023-10-09T09:41:08;6.28;;;5.35;;
67528;SDS011;54366;51.980;5.856;2023-10-09T09:43:36;5.25;;;4.60;;
67528;SDS011;54366;51.980;5.856;2023-10-09T09:46:09;6.85;;;5.40;;
67528;SDS011;54366;51.980;5.856;2023-10-09T09:48:37;5.13;;;4.45;;
67528;SDS011;54366;51.980;5.856;2023-10-09T09:51:13;4.67;;;4.20;;
67528;SDS011;54366;51.980;5.856;2023-10-09T09:53:43;8.90;;;7.28;;
67528;SDS011;54366;51.980;5.856;2023-10-09T09:56:15;7.13;;;6.30;;
67528;SDS011;54366;51.980;5.856;2023-10-09T09:58:48;7.60;;;5.55;;
67528;SDS011;54366;51.980;5.856;2023-10-09T10:01:19;7.75;;;6.20;;
67528;SDS011;54366;51.980;5.856;2023-10-09T10:03:56;11.48;;;8.20;;
67528;SDS011;54366;51.980;5.856;2023-10-09T10:06:27;10.45;;;7.97;;
67528;SDS011;54366;51.980;5.856;2023-10-09T10:08:58;11.82;;;7.97;;
67528;SDS011;54366;51.980;5.856;2023-10-09T10:14:11;7.43;;;5.95;;
67528;SDS011;54366;51.980;5.856;2023-10-09T10:17:01;8.65;;;5.50;;
67528;SDS011;54366;51.980;5.856;2023-10-09T10:22:39;7.38;;;5.40;;
67528;SDS011;54366;51.980;5.856;2023-10-09T10:25:05;5.15;;;4.65;;
67528;SDS011;54366;51.980;5.856;2023-10-09T10:27:35;9.13;;;6.50;;
67528;SDS011;54366;51.980;5.856;2023-10-09T10:30:26;7.57;;;5.78;;
67528;SDS011;54366;51.980;5.856;2023-10-09T10:32:58;8.07;;;6.05;;
67528;SDS011;54366;51.980;5.856;2023-10-09T10:35:43;8.60;;;6.10;;
67528;SDS011;54366;51.980;5.856;2023-10-09T10:38:31;9.43;;;6.15;;
67528;SDS011;54366;51.980;5.856;2023-10-09T10:41:09;9.95;;;6.30;;
67528;SDS011;54366;51.980;5.856;2023-10-09T10:43:40;7.97;;;5.70;;
67528;SDS011;54366;51.980;5.856;2023-10-09T10:46:15;7.38;;;5.75;;
67528;SDS011;54366;51.980;5.856;2023-10-09T10:49:06;9.13;;;5.50;;
67528;SDS011;54366;51.980;5.856;2023-10-09T10:51:42;6.75;;;5.53;;
67528;SDS011;54366;51.980;5.856;2023-10-09T10:54:21;6.43;;;4.63;;
67528;SDS011;54366;51.980;5.856;2023-10-09T10:57:18;4.55;;;3.80;;
67528;SDS011;54366;51.980;5.856;2023-10-09T10:59:54;3.90;;;3.40;;
67528;SDS011;54366;51.980;5.856;2023-10-09T11:02:38;4.25;;;3.30;;
67528;SDS011;54366;51.980;5.856;2023-10-09T11:05:07;8.60;;;5.50;;
67528;SDS011;54366;51.980;5.856;2023-10-09T11:07:56;6.25;;;4.43;;
67528;SDS011;54366;51.980;5.856;2023-10-09T11:10:23;5.75;;;4.82;;
67528;SDS011;54366;51.980;5.856;2023-10-09T11:12:54;7.22;;;5.03;;
67528;SDS011;54366;51.980;5.856;2023-10-09T11:15:30;4.55;;;3.67;;
67528;SDS011;54366;51.980;5.856;2023-10-09T11:18:10;7.28;;;4.57;;
67528;SDS011;54366;51.980;5.856;2023-10-09T11:20:51;7.85;;;5.50;;
67528;SDS011;54366;51.980;5.856;2023-10-09T11:23:22;9.27;;;5.95;;
67528;SDS011;54366;51.980;5.856;2023-10-09T11:26:13;7.05;;;4.97;;
67528;SDS011;54366;51.980;5.856;2023-10-09T11:29:11;5.60;;;4.38;;
67528;SDS011;54366;51.980;5.856;2023-10-09T11:32:04;4.82;;;3.55;;
67528;SDS011;54366;51.980;5.856;2023-10-09T11:34:32;3.97;;;3.45;;
67528;SDS011;54366;51.980;5.856;2023-10-09T11:37:13;4.95;;;3.40;;
67528;SDS011;54366;51.980;5.856;2023-10-09T11:39:58;9.65;;;5.88;;
67528;SDS011;54366;51.980;5.856;2023-10-09T11:42:27;6.80;;;4.45;;
67528;SDS011;54366;51.980;5.856;2023-10-09T11:45:22;6.90;;;5.00;;
67528;SDS011;54366;51.980;5.856;2023-10-09T11:47:56;9.00;;;5.47;;
67528;SDS011;54366;51.980;5.856;2023-10-09T11:53:46;8.13;;;5.05;;
67528;SDS011;54366;51.980;5.856;2023-10-09T11:56:15;6.63;;;5.20;;
67528;SDS011;54366;51.980;5.856;2023-10-09T11:58:48;8.10;;;5.00;;
67528;SDS011;54366;51.980;5.856;2023-10-09T12:01:19;9.10;;;5.80;;
67528;SDS011;54366;51.980;5.856;2023-10-09T12:03:51;6.50;;;4.78;;
67528;SDS011;54366;51.980;5.856;2023-10-09T12:06:20;3.80;;;3.40;;
67528;SDS011;54366;51.980;5.856;2023-10-09T12:08:49;4.15;;;3.38;;
67528;SDS011;54366;51.980;5.856;2023-10-09T12:11:16;5.35;;;3.95;;
67528;SDS011;54366;51.980;5.856;2023-10-09T12:13:54;6.95;;;4.75;;
67528;SDS011;54366;51.980;5.856;2023-10-09T12:16:26;4.97;;;4.03;;
67528;SDS011;54366;51.980;5.856;2023-10-09T12:18:58;5.85;;;3.70;;
67528;SDS011;54366;51.980;5.856;2023-10-09T12:21:25;5.60;;;4.20;;
67528;SDS011;54366;51.980;5.856;2023-10-09T12:23:53;4.00;;;3.47;;
67528;SDS011;54366;51.980;5.856;2023-10-09T12:26:23;4.18;;;2.90;;
67528;SDS011;54366;51.980;5.856;2023-10-09T12:28:49;7.32;;;3.55;;
67528;SDS011;54366;51.980;5.856;2023-10-09T12:31:16;5.50;;;3.53;;
67528;SDS011;54366;51.980;5.856;2023-10-09T12:33:45;5.32;;;4.10;;
67528;SDS011;54366;51.980;5.856;2023-10-09T12:36:13;9.00;;;4.03;;
67528;SDS011;54366;51.980;5.856;2023-10-09T12:38:49;5.40;;;3.60;;
67528;SDS011;54366;51.980;5.856;2023-10-09T12:41:18;5.50;;;3.42;;
67528;SDS011;54366;51.980;5.856;2023-10-09T12:43:54;4.35;;;3.03;;
67528;SDS011;54366;51.980;5.856;2023-10-09T12:46:21;4.53;;;3.17;;
67528;SDS011;54366;51.980;5.856;2023-10-09T12:48:54;2.97;;;2.67;;
67528;SDS011;54366;51.980;5.856;2023-10-09T12:51:21;5.05;;;3.15;;
67528;SDS011;54366;51.980;5.856;2023-10-09T12:53:55;4.55;;;3.28;;
67528;SDS011;54366;51.980;5.856;2023-10-09T12:56:27;4.32;;;2.90;;
67528;SDS011;54366;51.980;5.856;2023-10-09T12:59:03;3.55;;;2.70;;
67528;SDS011;54366;51.980;5.856;2023-10-09T13:01:33;2.60;;;2.40;;
67528;SDS011;54366;51.980;5.856;2023-10-09T13:04:09;3.65;;;2.40;;
67528;SDS011;54366;51.980;5.856;2023-10-09T13:06:40;3.10;;;2.78;;
67528;SDS011;54366;51.980;5.856;2023-10-09T13:09:18;4.57;;;2.67;;
67528;SDS011;54366;51.980;5.856;2023-10-09T13:11:50;3.95;;;2.60;;
67528;SDS011;54366;51.980;5.856;2023-10-09T13:14:17;3.28;;;2.55;;
67528;SDS011;54366;51.980;5.856;2023-10-09T13:16:47;5.63;;;3.25;;
67528;SDS011;54366;51.980;5.856;2023-10-09T13:19:18;3.22;;;2.50;;
67528;SDS011;54366;51.980;5.856;2023-10-09T13:21:45;3.75;;;2.97;;
67528;SDS011;54366;51.980;5.856;2023-10-09T13:24:12;2.75;;;2.38;;
67528;SDS011;54366;51.980;5.856;2023-10-09T13:26:49;3.50;;;2.17;;
67528;SDS011;54366;51.980;5.856;2023-10-09T13:29:23;3.75;;;3.10;;
67528;SDS011;54366;51.980;5.856;2023-10-09T13:31:50;3.78;;;2.50;;
67528;SDS011;54366;51.980;5.856;2023-10-09T13:34:23;4.35;;;2.90;;
67528;SDS011;54366;51.980;5.856;2023-10-09T13:36:53;3.00;;;2.70;;
67528;SDS011;54366;51.980;5.856;2023-10-09T13:39:21;3.35;;;2.80;;
67528;SDS011;54366;51.980;5.856;2023-10-09T13:41:51;4.78;;;3.63;;
67528;SDS011;54366;51.980;5.856;2023-10-09T13:44:27;6.30;;;3.80;;
67528;SDS011;54366;51.980;5.856;2023-10-09T13:46:55;4.68;;;3.33;;
67528;SDS011;54366;51.980;5.856;2023-10-09T13:49:22;3.50;;;2.95;;
67528;SDS011;54366;51.980;5.856;2023-10-09T13:51:49;5.00;;;3.03;;
67528;SDS011;54366;51.980;5.856;2023-10-09T13:54:16;6.88;;;4.53;;
67528;SDS011;54366;51.980;5.856;2023-10-09T13:56:47;4.68;;;3.38;;
67528;SDS011;54366;51.980;5.856;2023-10-09T13:59:19;3.50;;;2.45;;
67528;SDS011;54366;51.980;5.856;2023-10-09T14:01:48;6.43;;;4.38;;
67528;SDS011;54366;51.980;5.856;2023-10-09T14:04:15;6.68;;;5.00;;
67528;SDS011;54366;51.980;5.856;2023-10-09T14:06:44;5.43;;;3.90;;
67528;SDS011;54366;51.980;5.856;2023-10-09T14:09:11;5.55;;;3.60;;
67528;SDS011;54366;51.980;5.856;2023-10-09T14:11:56;4.00;;;2.78;;
67528;SDS011;54366;51.980;5.856;2023-10-09T14:14:34;3.53;;;2.78;;
67528;SDS011;54366;51.980;5.856;2023-10-09T14:17:07;3.03;;;2.50;;
67528;SDS011;54366;51.980;5.856;2023-10-09T14:19:42;4.28;;;3.00;;
67528;SDS011;54366;51.980;5.856;2023-10-09T14:22:16;4.45;;;2.85;;
67528;SDS011;54366;51.980;5.856;2023-10-09T14:24:47;4.75;;;3.10;;
67528;SDS011;54366;51.980;5.856;2023-10-09T14:27:21;2.60;;;2.40;;
67528;SDS011;54366;51.980;5.856;2023-10-09T14:29:53;2.75;;;2.05;;
67528;SDS011;54366;51.980;5.856;2023-10-09T14:32:25;2.67;;;2.15;;
67528;SDS011;54366;51.980;5.856;2023-10-09T14:34:55;4.35;;;3.33;;
67528;SDS011;54366;51.980;5.856;2023-10-09T14:37:29;4.40;;;2.78;;
67528;SDS011;54366;51.980;5.856;2023-10-09T14:39:57;3.55;;;2.70;;
67528;SDS011;54366;51.980;5.856;2023-10-09T14:42:24;2.90;;;2.58;;
67528;SDS011;54366;51.980;5.856;2023-10-09T14:44:53;2.95;;;2.13;;
67528;SDS011;54366;51.980;5.856;2023-10-09T14:47:21;3.00;;;2.20;;
67528;SDS011;54366;51.980;5.856;2023-10-09T14:49:47;2.67;;;2.25;;
67528;SDS011;54366;51.980;5.856;2023-10-09T14:52:14;3.45;;;2.63;;
67528;SDS011;54366;51.980;5.856;2023-10-09T14:54:44;3.50;;;2.53;;
67528;SDS011;54366;51.980;5.856;2023-10-09T14:57:11;4.75;;;3.13;;
67528;SDS011;54366;51.980;5.856;2023-10-09T14:59:38;5.70;;;2.72;;
67528;SDS011;54366;51.980;5.856;2023-10-09T15:02:05;3.72;;;2.85;;
67528;SDS011;54366;51.980;5.856;2023-10-09T15:04:33;4.53;;;3.00;;
67528;SDS011;54366;51.980;5.856;2023-10-09T15:07:05;5.85;;;3.47;;
67528;SDS011;54366;51.980;5.856;2023-10-09T15:09:34;3.80;;;2.90;;
67528;SDS011;54366;51.980;5.856;2023-10-09T15:12:06;4.20;;;3.03;;
67528;SDS011;54366;51.980;5.856;2023-10-09T15:14:33;3.00;;;2.47;;
67528;SDS011;54366;51.980;5.856;2023-10-09T15:16:59;3.00;;;2.42;;
67528;SDS011;54366;51.980;5.856;2023-10-09T15:19:26;3.58;;;2.63;;
67528;SDS011;54366;51.980;5.856;2023-10-09T15:21:56;2.45;;;2.22;;
67528;SDS011;54366;51.980;5.856;2023-10-09T15:24:24;3.75;;;2.47;;
67528;SDS011;54366;51.980;5.856;2023-10-09T15:26:53;3.08;;;2.17;;
67528;SDS011;54366;51.980;5.856;2023-10-09T15:29:23;3.20;;;2.40;;
67528;SDS011;54366;51.980;5.856;2023-10-09T15:31:54;4.63;;;2.60;;
67528;SDS011;54366;51.980;5.856;2023-10-09T15:34:21;3.55;;;2.60;;
67528;SDS011;54366;51.980;5.856;2023-10-09T15:36:47;5.53;;;3.10;;
67528;SDS011;54366;51.980;5.856;2023-10-09T15:39:14;3.75;;;2.70;;